KOPL/OPL METAR and TAF weather

Enter ICAO airport designator
Station Type Date Time Source
KOPL METAR 2019/04/25 09:35 UTC NOAA

KOPL 250935Z AUTO 17013G21KT 10SM BKN014 22/20 A2976 RMK AO2 LTG DSNT W AND NW T02180197


Station Type Date Time Source
KOPL Decoded METAR 2019/04/25 09:35 UTC NOAA

Station name not available
Apr 25, 2019 - 05:35 AM EDT / 2019.04.25 0935 UTC
Wind: from the S (170 degrees) at 15 MPH (13 KT) gusting to 24 MPH (21 KT):0
Visibility: 10 mile(s):0
Sky conditions: mostly cloudy
Weather: Lightning observed
Temperature: 71.2 F (21.8 C)
Dew Point: 67.5 F (19.7 C)
Relative Humidity: 87%
Pressure (altimeter): 29.76 in. Hg (1007 hPa)
ob: KOPL 250935Z AUTO 17013G21KT 10SM BKN014 22/20 A2976 RMK AO2 LTG DSNT W AND NW T02180197
cycle: 9

Station Type Date Time Source
KOPL TAF UTC NOAA

Error!

Example: see airport list